sensor_id;sensor_type;location;lat;lon;timestamp;P1;durP1;ratioP1;P2;durP2;ratioP2
38937;SDS011;24727;51.974;20.868;2023-12-20T00:01:02;23.15;;;14.27;;
38937;SDS011;24727;51.974;20.868;2023-12-20T00:03:28;23.17;;;15.10;;
38937;SDS011;24727;51.974;20.868;2023-12-20T00:05:53;24.15;;;16.77;;
38937;SDS011;24727;51.974;20.868;2023-12-20T00:08:20;22.75;;;15.00;;
38937;SDS011;24727;51.974;20.868;2023-12-20T00:10:46;25.10;;;15.60;;
38937;SDS011;24727;51.974;20.868;2023-12-20T00:13:12;29.55;;;17.08;;
38937;SDS011;24727;51.974;20.868;2023-12-20T00:15:38;26.48;;;15.48;;
38937;SDS011;24727;51.974;20.868;2023-12-20T00:18:03;25.73;;;15.32;;
38937;SDS011;24727;51.974;20.868;2023-12-20T00:20:30;34.42;;;19.48;;
38937;SDS011;24727;51.974;20.868;2023-12-20T00:22:56;22.80;;;16.45;;
38937;SDS011;24727;51.974;20.868;2023-12-20T00:25:23;22.45;;;14.18;;
38937;SDS011;24727;51.974;20.868;2023-12-20T00:27:49;20.52;;;14.02;;
38937;SDS011;24727;51.974;20.868;2023-12-20T00:30:15;19.48;;;14.93;;
38937;SDS011;24727;51.974;20.868;2023-12-20T00:32:42;25.15;;;14.73;;
38937;SDS011;24727;51.974;20.868;2023-12-20T00:35:14;21.50;;;12.55;;
38937;SDS011;24727;51.974;20.868;2023-12-20T00:37:41;20.02;;;13.13;;
38937;SDS011;24727;51.974;20.868;2023-12-20T00:40:08;29.40;;;16.88;;
38937;SDS011;24727;51.974;20.868;2023-12-20T00:42:34;18.05;;;11.65;;
38937;SDS011;24727;51.974;20.868;2023-12-20T00:45:01;27.08;;;14.70;;
38937;SDS011;24727;51.974;20.868;2023-12-20T00:47:27;34.42;;;18.30;;
38937;SDS011;24727;51.974;20.868;2023-12-20T00:49:53;39.72;;;20.23;;
38937;SDS011;24727;51.974;20.868;2023-12-20T00:52:19;28.05;;;17.58;;
38937;SDS011;24727;51.974;20.868;2023-12-20T00:54:47;24.35;;;16.90;;
38937;SDS011;24727;51.974;20.868;2023-12-20T00:57:13;28.65;;;19.20;;
38937;SDS011;24727;51.974;20.868;2023-12-20T00:59:39;25.05;;;18.27;;
38937;SDS011;24727;51.974;20.868;2023-12-20T01:02:05;27.75;;;19.70;;
38937;SDS011;24727;51.974;20.868;2023-12-20T01:04:30;30.42;;;19.77;;
38937;SDS011;24727;51.974;20.868;2023-12-20T01:06:56;26.42;;;16.52;;
38937;SDS011;24727;51.974;20.868;2023-12-20T01:09:22;26.92;;;17.23;;
38937;SDS011;24727;51.974;20.868;2023-12-20T01:11:54;25.50;;;15.98;;
38937;SDS011;24727;51.974;20.868;2023-12-20T01:14:20;24.42;;;17.08;;
38937;SDS011;24727;51.974;20.868;2023-12-20T01:16:46;23.77;;;14.23;;
38937;SDS011;24727;51.974;20.868;2023-12-20T01:19:12;22.70;;;15.98;;
38937;SDS011;24727;51.974;20.868;2023-12-20T01:21:39;26.55;;;17.80;;
38937;SDS011;24727;51.974;20.868;2023-12-20T01:24:05;28.85;;;17.65;;
38937;SDS011;24727;51.974;20.868;2023-12-20T01:26:31;31.50;;;18.33;;
38937;SDS011;24727;51.974;20.868;2023-12-20T01:28:56;27.73;;;18.10;;
38937;SDS011;24727;51.974;20.868;2023-12-20T01:31:22;35.38;;;18.15;;
38937;SDS011;24727;51.974;20.868;2023-12-20T01:33:48;23.65;;;15.95;;
38937;SDS011;24727;51.974;20.868;2023-12-20T01:36:14;28.02;;;15.45;;
38937;SDS011;24727;51.974;20.868;2023-12-20T01:38:40;27.13;;;14.25;;
38937;SDS011;24727;51.974;20.868;2023-12-20T01:41:06;20.17;;;14.75;;
38937;SDS011;24727;51.974;20.868;2023-12-20T01:43:32;23.15;;;13.15;;
38937;SDS011;24727;51.974;20.868;2023-12-20T01:45:58;22.33;;;12.48;;
38937;SDS011;24727;51.974;20.868;2023-12-20T01:48:24;22.90;;;18.25;;
38937;SDS011;24727;51.974;20.868;2023-12-20T01:50:51;24.65;;;18.58;;
38937;SDS011;24727;51.974;20.868;2023-12-20T01:53:18;25.88;;;21.67;;
38937;SDS011;24727;51.974;20.868;2023-12-20T01:55:45;23.23;;;18.02;;
38937;SDS011;24727;51.974;20.868;2023-12-20T01:58:12;23.25;;;17.15;;
38937;SDS011;24727;51.974;20.868;2023-12-20T02:00:39;23.23;;;18.88;;
38937;SDS011;24727;51.974;20.868;2023-12-20T02:03:05;13.82;;;10.35;;
38937;SDS011;24727;51.974;20.868;2023-12-20T02:05:32;14.80;;;11.55;;
38937;SDS011;24727;51.974;20.868;2023-12-20T02:07:59;13.73;;;9.60;;
38937;SDS011;24727;51.974;20.868;2023-12-20T02:10:25;13.27;;;8.95;;
38937;SDS011;24727;51.974;20.868;2023-12-20T02:12:52;17.30;;;8.77;;
38937;SDS011;24727;51.974;20.868;2023-12-20T02:15:18;12.50;;;8.20;;
38937;SDS011;24727;51.974;20.868;2023-12-20T02:17:44;11.57;;;8.38;;
38937;SDS011;24727;51.974;20.868;2023-12-20T02:20:12;11.07;;;7.93;;
38937;SDS011;24727;51.974;20.868;2023-12-20T02:22:38;11.70;;;7.35;;
38937;SDS011;24727;51.974;20.868;2023-12-20T02:25:04;10.18;;;6.53;;
38937;SDS011;24727;51.974;20.868;2023-12-20T02:27:29;11.73;;;7.47;;
38937;SDS011;24727;51.974;20.868;2023-12-20T02:29:56;10.38;;;7.45;;
38937;SDS011;24727;51.974;20.868;2023-12-20T02:32:22;10.75;;;6.60;;
38937;SDS011;24727;51.974;20.868;2023-12-20T02:34:52;8.80;;;5.70;;
38937;SDS011;24727;51.974;20.868;2023-12-20T02:37:19;9.43;;;5.88;;
38937;SDS011;24727;51.974;20.868;2023-12-20T02:39:44;7.65;;;5.28;;
38937;SDS011;24727;51.974;20.868;2023-12-20T02:42:10;13.45;;;10.95;;
38937;SDS011;24727;51.974;20.868;2023-12-20T02:44:36;9.80;;;6.28;;
38937;SDS011;24727;51.974;20.868;2023-12-20T02:47:02;8.57;;;6.13;;
38937;SDS011;24727;51.974;20.868;2023-12-20T02:49:28;7.13;;;4.82;;
38937;SDS011;24727;51.974;20.868;2023-12-20T02:51:54;7.30;;;4.65;;
38937;SDS011;24727;51.974;20.868;2023-12-20T02:54:20;7.78;;;5.38;;
38937;SDS011;24727;51.974;20.868;2023-12-20T02:56:46;7.15;;;5.13;;
38937;SDS011;24727;51.974;20.868;2023-12-20T02:59:12;8.45;;;5.22;;
38937;SDS011;24727;51.974;20.868;2023-12-20T03:01:42;7.63;;;5.13;;
38937;SDS011;24727;51.974;20.868;2023-12-20T03:04:09;9.18;;;5.80;;
38937;SDS011;24727;51.974;20.868;2023-12-20T03:06:35;8.32;;;6.03;;
38937;SDS011;24727;51.974;20.868;2023-12-20T03:09:01;8.80;;;5.18;;
38937;SDS011;24727;51.974;20.868;2023-12-20T03:11:27;10.18;;;6.18;;
38937;SDS011;24727;51.974;20.868;2023-12-20T03:13:54;8.70;;;6.60;;
38937;SDS011;24727;51.974;20.868;2023-12-20T03:16:23;9.05;;;6.70;;
38937;SDS011;24727;51.974;20.868;2023-12-20T03:18:49;10.55;;;6.32;;
38937;SDS011;24727;51.974;20.868;2023-12-20T03:21:15;11.55;;;6.38;;
38937;SDS011;24727;51.974;20.868;2023-12-20T03:23:41;12.27;;;6.63;;
38937;SDS011;24727;51.974;20.868;2023-12-20T03:26:07;12.40;;;6.55;;
38937;SDS011;24727;51.974;20.868;2023-12-20T03:28:33;11.60;;;7.00;;
38937;SDS011;24727;51.974;20.868;2023-12-20T03:30:59;11.57;;;7.50;;
38937;SDS011;24727;51.974;20.868;2023-12-20T03:33:25;12.70;;;7.88;;
38937;SDS011;24727;51.974;20.868;2023-12-20T03:35:51;10.32;;;7.40;;
38937;SDS011;24727;51.974;20.868;2023-12-20T03:38:17;12.70;;;8.30;;
38937;SDS011;24727;51.974;20.868;2023-12-20T03:40:43;11.25;;;7.40;;
38937;SDS011;24727;51.974;20.868;2023-12-20T03:43:08;11.77;;;7.45;;
38937;SDS011;24727;51.974;20.868;2023-12-20T03:45:34;11.95;;;7.75;;
38937;SDS011;24727;51.974;20.868;2023-12-20T03:48:00;10.98;;;6.97;;
38937;SDS011;24727;51.974;20.868;2023-12-20T03:50:26;12.23;;;7.72;;
38937;SDS011;24727;51.974;20.868;2023-12-20T03:52:52;11.57;;;8.00;;
38937;SDS011;24727;51.974;20.868;2023-12-20T03:55:18;12.23;;;7.38;;
38937;SDS011;24727;51.974;20.868;2023-12-20T03:57:43;11.20;;;7.93;;
38937;SDS011;24727;51.974;20.868;2023-12-20T04:00:10;11.15;;;7.50;;
38937;SDS011;24727;51.974;20.868;2023-12-20T04:02:42;11.07;;;7.32;;
38937;SDS011;24727;51.974;20.868;2023-12-20T04:05:09;11.70;;;7.97;;
38937;SDS011;24727;51.974;20.868;2023-12-20T04:07:35;10.85;;;7.53;;
38937;SDS011;24727;51.974;20.868;2023-12-20T04:10:02;10.65;;;7.20;;
38937;SDS011;24727;51.974;20.868;2023-12-20T04:12:29;12.10;;;7.10;;
38937;SDS011;24727;51.974;20.868;2023-12-20T04:14:55;11.85;;;7.40;;
38937;SDS011;24727;51.974;20.868;2023-12-20T04:17:21;10.60;;;7.07;;
38937;SDS011;24727;51.974;20.868;2023-12-20T04:19:48;12.23;;;7.60;;
38937;SDS011;24727;51.974;20.868;2023-12-20T04:22:14;11.95;;;7.10;;
38937;SDS011;24727;51.974;20.868;2023-12-20T04:24:40;14.18;;;7.70;;
38937;SDS011;24727;51.974;20.868;2023-12-20T04:27:09;14.52;;;8.43;;
38937;SDS011;24727;51.974;20.868;2023-12-20T04:29:35;10.20;;;6.47;;
38937;SDS011;24727;51.974;20.868;2023-12-20T04:32:01;11.27;;;7.53;;
38937;SDS011;24727;51.974;20.868;2023-12-20T04:34:27;13.27;;;7.60;;
38937;SDS011;24727;51.974;20.868;2023-12-20T04:36:53;10.77;;;7.05;;
38937;SDS011;24727;51.974;20.868;2023-12-20T04:39:19;9.70;;;6.63;;
38937;SDS011;24727;51.974;20.868;2023-12-20T04:41:44;10.73;;;6.65;;
38937;SDS011;24727;51.974;20.868;2023-12-20T04:44:12;11.80;;;6.93;;
38937;SDS011;24727;51.974;20.868;2023-12-20T04:46:38;10.50;;;6.70;;
38937;SDS011;24727;51.974;20.868;2023-12-20T04:49:04;9.32;;;6.53;;
38937;SDS011;24727;51.974;20.868;2023-12-20T04:51:32;10.25;;;6.75;;
38937;SDS011;24727;51.974;20.868;2023-12-20T04:53:59;11.43;;;6.47;;
38937;SDS011;24727;51.974;20.868;2023-12-20T04:56:25;9.52;;;6.07;;
38937;SDS011;24727;51.974;20.868;2023-12-20T04:58:51;11.30;;;6.35;;
38937;SDS011;24727;51.974;20.868;2023-12-20T05:01:17;11.35;;;6.82;;
38937;SDS011;24727;51.974;20.868;2023-12-20T05:03:43;9.75;;;7.05;;
38937;SDS011;24727;51.974;20.868;2023-12-20T05:06:09;11.02;;;7.82;;
38937;SDS011;24727;51.974;20.868;2023-12-20T05:08:36;14.77;;;7.60;;
38937;SDS011;24727;51.974;20.868;2023-12-20T05:11:01;12.18;;;7.38;;
38937;SDS011;24727;51.974;20.868;2023-12-20T05:13:28;10.60;;;7.22;;
38937;SDS011;24727;51.974;20.868;2023-12-20T05:15:54;12.32;;;7.22;;
38937;SDS011;24727;51.974;20.868;2023-12-20T05:18:20;10.38;;;7.47;;
38937;SDS011;24727;51.974;20.868;2023-12-20T05:20:48;13.65;;;8.40;;
38937;SDS011;24727;51.974;20.868;2023-12-20T05:23:16;16.70;;;9.23;;
38937;SDS011;24727;51.974;20.868;2023-12-20T05:25:42;13.68;;;8.32;;
38937;SDS011;24727;51.974;20.868;2023-12-20T05:28:08;15.18;;;9.07;;
38937;SDS011;24727;51.974;20.868;2023-12-20T05:30:34;16.95;;;9.45;;
38937;SDS011;24727;51.974;20.868;2023-12-20T05:33:00;14.43;;;8.95;;
38937;SDS011;24727;51.974;20.868;2023-12-20T05:35:26;16.00;;;9.75;;
38937;SDS011;24727;51.974;20.868;2023-12-20T05:37:52;14.95;;;9.00;;
38937;SDS011;24727;51.974;20.868;2023-12-20T05:40:18;15.85;;;9.43;;
38937;SDS011;24727;51.974;20.868;2023-12-20T05:42:43;13.82;;;7.72;;
38937;SDS011;24727;51.974;20.868;2023-12-20T05:45:09;13.77;;;8.00;;
38937;SDS011;24727;51.974;20.868;2023-12-20T05:47:36;10.80;;;6.85;;
38937;SDS011;24727;51.974;20.868;2023-12-20T05:50:02;10.30;;;6.80;;
38937;SDS011;24727;51.974;20.868;2023-12-20T05:52:28;10.48;;;6.80;;
38937;SDS011;24727;51.974;20.868;2023-12-20T05:54:54;9.13;;;6.50;;
38937;SDS011;24727;51.974;20.868;2023-12-20T05:57:22;10.85;;;5.90;;
38937;SDS011;24727;51.974;20.868;2023-12-20T05:59:48;9.48;;;5.78;;
38937;SDS011;24727;51.974;20.868;2023-12-20T06:02:14;10.40;;;5.88;;
38937;SDS011;24727;51.974;20.868;2023-12-20T06:04:41;8.75;;;5.28;;
38937;SDS011;24727;51.974;20.868;2023-12-20T06:07:11;7.18;;;4.70;;
38937;SDS011;24727;51.974;20.868;2023-12-20T06:09:38;11.45;;;5.15;;
38937;SDS011;24727;51.974;20.868;2023-12-20T06:12:04;13.00;;;6.20;;
38937;SDS011;24727;51.974;20.868;2023-12-20T06:14:30;10.20;;;6.22;;
38937;SDS011;24727;51.974;20.868;2023-12-20T06:16:57;9.10;;;5.45;;
38937;SDS011;24727;51.974;20.868;2023-12-20T06:19:23;8.18;;;5.50;;
38937;SDS011;24727;51.974;20.868;2023-12-20T06:21:48;13.82;;;6.47;;
38937;SDS011;24727;51.974;20.868;2023-12-20T06:24:14;12.82;;;7.22;;
38937;SDS011;24727;51.974;20.868;2023-12-20T06:26:40;11.52;;;6.70;;
38937;SDS011;24727;51.974;20.868;2023-12-20T06:29:06;12.48;;;7.65;;
38937;SDS011;24727;51.974;20.868;2023-12-20T06:31:32;13.65;;;8.60;;
38937;SDS011;24727;51.974;20.868;2023-12-20T06:33:58;12.48;;;8.05;;
38937;SDS011;24727;51.974;20.868;2023-12-20T06:36:25;14.02;;;8.10;;
38937;SDS011;24727;51.974;20.868;2023-12-20T06:38:51;14.40;;;7.85;;
38937;SDS011;24727;51.974;20.868;2023-12-20T06:41:18;13.90;;;8.55;;
38937;SDS011;24727;51.974;20.868;2023-12-20T06:43:44;12.77;;;8.48;;
38937;SDS011;24727;51.974;20.868;2023-12-20T06:46:10;16.42;;;11.05;;
38937;SDS011;24727;51.974;20.868;2023-12-20T06:48:36;16.95;;;9.80;;
38937;SDS011;24727;51.974;20.868;2023-12-20T06:51:02;17.73;;;11.85;;
38937;SDS011;24727;51.974;20.868;2023-12-20T06:53:28;13.75;;;8.73;;
38937;SDS011;24727;51.974;20.868;2023-12-20T06:55:54;13.57;;;8.65;;
38937;SDS011;24727;51.974;20.868;2023-12-20T06:58:21;15.70;;;7.72;;
38937;SDS011;24727;51.974;20.868;2023-12-20T07:00:47;11.18;;;7.65;;
38937;SDS011;24727;51.974;20.868;2023-12-20T07:03:13;10.55;;;6.57;;
38937;SDS011;24727;51.974;20.868;2023-12-20T07:05:39;10.88;;;6.93;;
38937;SDS011;24727;51.974;20.868;2023-12-20T07:08:06;12.07;;;7.45;;
38937;SDS011;24727;51.974;20.868;2023-12-20T07:10:32;12.70;;;7.43;;
38937;SDS011;24727;51.974;20.868;2023-12-20T07:12:58;12.30;;;6.65;;
38937;SDS011;24727;51.974;20.868;2023-12-20T07:15:24;12.90;;;6.22;;
38937;SDS011;24727;51.974;20.868;2023-12-20T07:17:50;12.98;;;7.22;;
38937;SDS011;24727;51.974;20.868;2023-12-20T07:20:16;11.25;;;6.38;;
38937;SDS011;24727;51.974;20.868;2023-12-20T07:22:42;12.07;;;6.60;;
38937;SDS011;24727;51.974;20.868;2023-12-20T07:25:08;13.15;;;6.43;;
38937;SDS011;24727;51.974;20.868;2023-12-20T07:27:34;10.52;;;6.45;;
38937;SDS011;24727;51.974;20.868;2023-12-20T07:29:59;11.52;;;6.53;;
38937;SDS011;24727;51.974;20.868;2023-12-20T07:32:25;11.07;;;6.32;;
38937;SDS011;24727;51.974;20.868;2023-12-20T07:34:51;11.88;;;6.82;;
38937;SDS011;24727;51.974;20.868;2023-12-20T07:37:18;12.80;;;7.10;;
38937;SDS011;24727;51.974;20.868;2023-12-20T07:39:44;12.80;;;6.90;;
38937;SDS011;24727;51.974;20.868;2023-12-20T07:42:10;14.70;;;7.80;;
38937;SDS011;24727;51.974;20.868;2023-12-20T07:44:36;10.75;;;6.40;;
38937;SDS011;24727;51.974;20.868;2023-12-20T07:47:02;13.02;;;6.03;;
38937;SDS011;24727;51.974;20.868;2023-12-20T07:49:28;10.95;;;6.70;;
38937;SDS011;24727;51.974;20.868;2023-12-20T07:51:55;13.07;;;6.88;;
38937;SDS011;24727;51.974;20.868;2023-12-20T07:54:21;12.30;;;6.18;;
38937;SDS011;24727;51.974;20.868;2023-12-20T07:56:46;11.32;;;6.85;;
38937;SDS011;24727;51.974;20.868;2023-12-20T07:59:12;12.40;;;6.47;;
38937;SDS011;24727;51.974;20.868;2023-12-20T08:01:38;11.25;;;6.57;;
38937;SDS011;24727;51.974;20.868;2023-12-20T08:04:04;12.88;;;7.47;;
38937;SDS011;24727;51.974;20.868;2023-12-20T08:06:30;8.05;;;5.68;;
38937;SDS011;24727;51.974;20.868;2023-12-20T08:08:56;10.50;;;6.80;;
38937;SDS011;24727;51.974;20.868;2023-12-20T08:11:22;10.77;;;6.57;;
38937;SDS011;24727;51.974;20.868;2023-12-20T08:13:48;12.30;;;6.70;;
38937;SDS011;24727;51.974;20.868;2023-12-20T08:16:14;12.13;;;6.38;;
38937;SDS011;24727;51.974;20.868;2023-12-20T08:18:42;10.95;;;6.10;;
38937;SDS011;24727;51.974;20.868;2023-12-20T08:21:08;11.07;;;7.00;;
38937;SDS011;24727;51.974;20.868;2023-12-20T08:23:34;16.58;;;11.07;;
38937;SDS011;24727;51.974;20.868;2023-12-20T08:26:03;19.20;;;13.05;;
38937;SDS011;24727;51.974;20.868;2023-12-20T08:28:30;24.90;;;16.63;;
38937;SDS011;24727;51.974;20.868;2023-12-20T08:30:56;18.48;;;13.73;;
38937;SDS011;24727;51.974;20.868;2023-12-20T08:33:22;36.72;;;26.10;;
38937;SDS011;24727;51.974;20.868;2023-12-20T08:35:48;40.53;;;31.30;;
38937;SDS011;24727;51.974;20.868;2023-12-20T08:38:14;52.92;;;38.75;;
38937;SDS011;24727;51.974;20.868;2023-12-20T08:40:39;50.00;;;37.50;;
38937;SDS011;24727;51.974;20.868;2023-12-20T08:43:05;40.53;;;31.52;;
38937;SDS011;24727;51.974;20.868;2023-12-20T08:45:31;49.42;;;36.65;;
38937;SDS011;24727;51.974;20.868;2023-12-20T08:47:57;51.00;;;36.28;;
38937;SDS011;24727;51.974;20.868;2023-12-20T08:50:23;45.10;;;34.15;;
38937;SDS011;24727;51.974;20.868;2023-12-20T08:52:50;55.47;;;35.05;;
38937;SDS011;24727;51.974;20.868;2023-12-20T08:55:16;43.03;;;28.73;;
38937;SDS011;24727;51.974;20.868;2023-12-20T08:57:43;38.05;;;27.13;;
38937;SDS011;24727;51.974;20.868;2023-12-20T09:00:10;34.30;;;25.52;;
38937;SDS011;24727;51.974;20.868;2023-12-20T09:02:37;28.25;;;17.92;;
38937;SDS011;24727;51.974;20.868;2023-12-20T09:05:04;31.08;;;18.33;;
38937;SDS011;24727;51.974;20.868;2023-12-20T09:07:30;26.42;;;16.85;;
38937;SDS011;24727;51.974;20.868;2023-12-20T09:09:57;31.10;;;16.25;;
38937;SDS011;24727;51.974;20.868;2023-12-20T09:12:23;22.88;;;15.20;;
38937;SDS011;24727;51.974;20.868;2023-12-20T09:14:50;23.10;;;13.65;;
38937;SDS011;24727;51.974;20.868;2023-12-20T09:17:17;27.25;;;16.05;;
38937;SDS011;24727;51.974;20.868;2023-12-20T09:19:44;23.42;;;14.23;;
38937;SDS011;24727;51.974;20.868;2023-12-20T09:22:10;28.73;;;11.95;;
38937;SDS011;24727;51.974;20.868;2023-12-20T09:24:37;13.40;;;8.50;;
38937;SDS011;24727;51.974;20.868;2023-12-20T09:27:04;18.05;;;10.57;;
38937;SDS011;24727;51.974;20.868;2023-12-20T09:29:31;18.92;;;10.77;;
38937;SDS011;24727;51.974;20.868;2023-12-20T09:31:57;19.92;;;10.50;;
38937;SDS011;24727;51.974;20.868;2023-12-20T09:34:23;18.60;;;11.77;;
38937;SDS011;24727;51.974;20.868;2023-12-20T09:36:49;16.13;;;9.25;;
38937;SDS011;24727;51.974;20.868;2023-12-20T09:39:16;18.90;;;11.38;;
38937;SDS011;24727;51.974;20.868;2023-12-20T09:41:49;18.98;;;12.43;;
38937;SDS011;24727;51.974;20.868;2023-12-20T09:44:31;15.43;;;8.73;;
38937;SDS011;24727;51.974;20.868;2023-12-20T09:47:02;13.07;;;8.60;;
38937;SDS011;24727;51.974;20.868;2023-12-20T09:49:29;23.98;;;12.50;;
38937;SDS011;24727;51.974;20.868;2023-12-20T09:51:56;29.83;;;15.10;;
38937;SDS011;24727;51.974;20.868;2023-12-20T09:54:22;21.27;;;13.30;;
38937;SDS011;24727;51.974;20.868;2023-12-20T09:56:49;21.67;;;11.15;;
38937;SDS011;24727;51.974;20.868;2023-12-20T09:59:15;23.20;;;11.30;;
38937;SDS011;24727;51.974;20.868;2023-12-20T10:01:41;24.52;;;13.68;;
38937;SDS011;24727;51.974;20.868;2023-12-20T10:04:08;23.90;;;13.07;;
38937;SDS011;24727;51.974;20.868;2023-12-20T10:06:42;23.92;;;14.15;;
38937;SDS011;24727;51.974;20.868;2023-12-20T10:09:08;22.63;;;12.93;;
38937;SDS011;24727;51.974;20.868;2023-12-20T10:11:36;34.25;;;25.45;;
38937;SDS011;24727;51.974;20.868;2023-12-20T10:14:02;38.75;;;29.00;;
38937;SDS011;24727;51.974;20.868;2023-12-20T10:16:29;35.70;;;24.27;;
38937;SDS011;24727;51.974;20.868;2023-12-20T10:18:56;36.78;;;30.02;;
38937;SDS011;24727;51.974;20.868;2023-12-20T10:21:22;37.42;;;27.95;;
38937;SDS011;24727;51.974;20.868;2023-12-20T10:23:51;33.15;;;24.15;;
38937;SDS011;24727;51.974;20.868;2023-12-20T10:26:24;27.55;;;20.55;;
38937;SDS011;24727;51.974;20.868;2023-12-20T10:28:53;8.82;;;6.60;;
38937;SDS011;24727;51.974;20.868;2023-12-20T10:33:56;9.35;;;6.80;;
38937;SDS011;24727;51.974;20.868;2023-12-20T10:36:24;9.45;;;5.90;;
38937;SDS011;24727;51.974;20.868;2023-12-20T10:38:52;11.20;;;7.63;;
38937;SDS011;24727;51.974;20.868;2023-12-20T10:41:19;9.48;;;6.88;;
38937;SDS011;24727;51.974;20.868;2023-12-20T10:43:53;5.78;;;3.85;;
38937;SDS011;24727;51.974;20.868;2023-12-20T10:46:27;6.20;;;4.13;;
38937;SDS011;24727;51.974;20.868;2023-12-20T10:48:54;5.82;;;4.28;;
38937;SDS011;24727;51.974;20.868;2023-12-20T10:51:21;8.55;;;4.10;;
38937;SDS011;24727;51.974;20.868;2023-12-20T10:53:50;13.43;;;10.10;;
38937;SDS011;24727;51.974;20.868;2023-12-20T10:56:17;43.88;;;30.77;;
38937;SDS011;24727;51.974;20.868;2023-12-20T10:58:47;37.00;;;27.38;;
38937;SDS011;24727;51.974;20.868;2023-12-20T11:01:14;37.35;;;28.02;;
38937;SDS011;24727;51.974;20.868;2023-12-20T11:03:43;20.13;;;11.75;;
38937;SDS011;24727;51.974;20.868;2023-12-20T11:06:25;7.35;;;5.22;;
38937;SDS011;24727;51.974;20.868;2023-12-20T11:11:40;5.68;;;3.30;;
38937;SDS011;24727;51.974;20.868;2023-12-20T11:14:12;7.97;;;4.22;;
38937;SDS011;24727;51.974;20.868;2023-12-20T11:16:49;11.45;;;8.52;;
38937;SDS011;24727;51.974;20.868;2023-12-20T11:19:16;21.77;;;14.90;;
38937;SDS011;24727;51.974;20.868;2023-12-20T11:21:43;32.95;;;25.05;;
38937;SDS011;24727;51.974;20.868;2023-12-20T11:24:10;27.23;;;21.50;;
38937;SDS011;24727;51.974;20.868;2023-12-20T11:26:36;27.20;;;21.98;;
38937;SDS011;24727;51.974;20.868;2023-12-20T11:29:28;30.25;;;25.75;;
38937;SDS011;24727;51.974;20.868;2023-12-20T11:34:56;15.43;;;11.88;;
38937;SDS011;24727;51.974;20.868;2023-12-20T11:37:30;7.93;;;5.35;;
38937;SDS011;24727;51.974;20.868;2023-12-20T11:42:40;5.90;;;4.95;;
38937;SDS011;24727;51.974;20.868;2023-12-20T11:45:13;9.40;;;7.05;;
38937;SDS011;24727;51.974;20.868;2023-12-20T11:47:41;17.15;;;14.05;;
38937;SDS011;24727;51.974;20.868;2023-12-20T11:50:08;6.90;;;5.47;;
38937;SDS011;24727;51.974;20.868;2023-12-20T11:52:34;7.75;;;5.10;;
38937;SDS011;24727;51.974;20.868;2023-12-20T11:55:01;5.47;;;3.80;;
38937;SDS011;24727;51.974;20.868;2023-12-20T11:57:26;4.80;;;3.17;;
38937;SDS011;24727;51.974;20.868;2023-12-20T11:59:52;4.75;;;3.28;;
38937;SDS011;24727;51.974;20.868;2023-12-20T12:02:18;5.25;;;4.07;;
38937;SDS011;24727;51.974;20.868;2023-12-20T12:04:44;4.05;;;3.03;;
38937;SDS011;24727;51.974;20.868;2023-12-20T12:07:09;6.20;;;3.63;;
38937;SDS011;24727;51.974;20.868;2023-12-20T12:09:36;4.80;;;3.28;;
38937;SDS011;24727;51.974;20.868;2023-12-20T12:12:02;5.43;;;2.63;;
38937;SDS011;24727;51.974;20.868;2023-12-20T12:14:28;4.20;;;2.45;;
38937;SDS011;24727;51.974;20.868;2023-12-20T12:16:54;5.95;;;2.72;;
38937;SDS011;24727;51.974;20.868;2023-12-20T12:19:23;3.60;;;2.40;;
38937;SDS011;24727;51.974;20.868;2023-12-20T12:21:50;3.80;;;2.90;;
38937;SDS011;24727;51.974;20.868;2023-12-20T12:24:19;4.20;;;2.30;;
38937;SDS011;24727;51.974;20.868;2023-12-20T12:26:50;4.97;;;2.75;;
38937;SDS011;24727;51.974;20.868;2023-12-20T12:29:16;6.95;;;2.28;;
38937;SDS011;24727;51.974;20.868;2023-12-20T12:31:42;4.43;;;2.55;;
38937;SDS011;24727;51.974;20.868;2023-12-20T12:34:08;3.92;;;2.20;;
38937;SDS011;24727;51.974;20.868;2023-12-20T12:36:34;2.72;;;1.52;;
38937;SDS011;24727;51.974;20.868;2023-12-20T12:39:03;3.45;;;1.85;;
38937;SDS011;24727;51.974;20.868;2023-12-20T12:41:30;4.13;;;2.00;;
38937;SDS011;24727;51.974;20.868;2023-12-20T12:43:55;5.22;;;2.33;;
38937;SDS011;24727;51.974;20.868;2023-12-20T12:46:21;5.03;;;2.00;;
38937;SDS011;24727;51.974;20.868;2023-12-20T12:48:47;4.15;;;2.50;;
38937;SDS011;24727;51.974;20.868;2023-12-20T12:51:14;4.88;;;2.58;;
38937;SDS011;24727;51.974;20.868;2023-12-20T12:53:40;6.18;;;2.40;;
38937;SDS011;24727;51.974;20.868;2023-12-20T12:56:06;6.22;;;2.83;;
38937;SDS011;24727;51.974;20.868;2023-12-20T12:58:32;4.78;;;2.67;;
38937;SDS011;24727;51.974;20.868;2023-12-20T13:00:58;5.25;;;3.05;;
38937;SDS011;24727;51.974;20.868;2023-12-20T13:03:24;8.95;;;2.60;;
38937;SDS011;24727;51.974;20.868;2023-12-20T13:05:50;4.95;;;3.08;;
38937;SDS011;24727;51.974;20.868;2023-12-20T13:08:16;7.95;;;3.63;;
38937;SDS011;24727;51.974;20.868;2023-12-20T13:10:42;5.95;;;3.22;;
38937;SDS011;24727;51.974;20.868;2023-12-20T13:13:07;7.30;;;3.13;;
38937;SDS011;24727;51.974;20.868;2023-12-20T13:15:33;6.70;;;3.75;;
38937;SDS011;24727;51.974;20.868;2023-12-20T13:17:59;9.63;;;4.78;;
38937;SDS011;24727;51.974;20.868;2023-12-20T13:20:25;8.40;;;4.05;;
38937;SDS011;24727;51.974;20.868;2023-12-20T13:22:51;7.50;;;4.90;;
38937;SDS011;24727;51.974;20.868;2023-12-20T13:25:17;9.15;;;5.30;;
38937;SDS011;24727;51.974;20.868;2023-12-20T13:27:43;7.70;;;4.57;;
38937;SDS011;24727;51.974;20.868;2023-12-20T13:30:09;7.20;;;3.67;;
38937;SDS011;24727;51.974;20.868;2023-12-20T13:32:35;5.93;;;4.18;;
38937;SDS011;24727;51.974;20.868;2023-12-20T13:35:01;7.07;;;4.57;;
38937;SDS011;24727;51.974;20.868;2023-12-20T13:37:27;5.65;;;4.10;;
38937;SDS011;24727;51.974;20.868;2023-12-20T13:39:54;7.97;;;4.35;;
38937;SDS011;24727;51.974;20.868;2023-12-20T13:42:20;6.95;;;4.57;;
38937;SDS011;24727;51.974;20.868;2023-12-20T13:44:46;6.38;;;4.28;;
38937;SDS011;24727;51.974;20.868;2023-12-20T13:47:12;6.00;;;4.15;;
38937;SDS011;24727;51.974;20.868;2023-12-20T13:49:38;8.45;;;4.28;;
38937;SDS011;24727;51.974;20.868;2023-12-20T13:52:03;8.75;;;4.60;;
38937;SDS011;24727;51.974;20.868;2023-12-20T13:54:29;9.02;;;4.40;;
38937;SDS011;24727;51.974;20.868;2023-12-20T13:56:55;7.43;;;5.22;;
38937;SDS011;24727;51.974;20.868;2023-12-20T13:59:22;7.25;;;4.53;;
38937;SDS011;24727;51.974;20.868;2023-12-20T14:01:48;9.43;;;5.15;;
38937;SDS011;24727;51.974;20.868;2023-12-20T14:04:15;9.70;;;5.47;;
38937;SDS011;24727;51.974;20.868;2023-12-20T14:06:41;8.55;;;5.47;;
38937;SDS011;24727;51.974;20.868;2023-12-20T14:09:08;7.65;;;4.68;;
38937;SDS011;24727;51.974;20.868;2023-12-20T14:11:33;10.23;;;5.75;;
38937;SDS011;24727;51.974;20.868;2023-12-20T14:13:59;8.63;;;5.47;;
38937;SDS011;24727;51.974;20.868;2023-12-20T14:16:26;8.30;;;6.25;;
38937;SDS011;24727;51.974;20.868;2023-12-20T14:18:52;7.63;;;5.78;;
38937;SDS011;24727;51.974;20.868;2023-12-20T14:21:22;11.57;;;5.60;;
38937;SDS011;24727;51.974;20.868;2023-12-20T14:23:49;7.03;;;4.88;;
38937;SDS011;24727;51.974;20.868;2023-12-20T14:26:14;6.00;;;4.18;;
38937;SDS011;24727;51.974;20.868;2023-12-20T14:28:41;7.05;;;4.75;;